Station Historical Data
Daily Summary for January 19, 2017 Units:  Both    English   Metric
« Previous Day
Next Day »
Daily Weekly Monthly Yearly Custom
  High: Low: Average:
Temperature: 36.3 °F /  2.4 °C 33.4 °F /  0.8 °C 34.5 °F /  1.4 °C
Dew Point: 35.3 °F /  1.8 °C 31.7 °F /  -0.2 °C 32.7 °F /  0.4 °C
Humidity: 96% 90% 93%
Wind Speed: 14.0mph /  22.5km/h - 4.4mph /  7.1km/h
Wind Gust: 22.0mph /  35.4km/h - -
Wind- - WSW
Pressure: 30.12 in /  1019.9 hPa 29.99 in /  1015.5 hPa -
Precipitation: 0.00 in /  0 mm    
Historical Graphs
 
 
Tabular Data for January 19, 2017
Time Temperature Dew Point Pressure Wind Wind Speed Wind Gust Humidity Rainfall Rate (Hourly)
00:04 36.1 °F /  2.3 °C 35.1 °F /  1.7 °C 30.05in /  1017.5hPa WSW 10.0mph /  16.1km/h 18.0mph /  29km/h 96% 0.01in /  0.25mm
00:09 36.1 °F /  2.3 °C 35.1 °F /  1.7 °C 30.05in /  1017.5hPa WSW 9.0mph /  14.5km/h 18.0mph /  29km/h 96% 0.01in /  0.25mm
00:14 36.1 °F /  2.3 °C 35.1 °F /  1.7 °C 30.04in /  1017.2hPa SW 8.0mph /  12.9km/h 19.0mph /  30.6km/h 96% 0.01in /  0.25mm
00:19 36.1 °F /  2.3 °C 35.1 °F /  1.7 °C 30.05in /  1017.5hPa West 13.0mph /  20.9km/h 17.0mph /  27.4km/h 96% 0.00in /  0mm
00:24 36.2 °F /  2.3 °C 35.2 °F /  1.8 °C 30.04in /  1017.2hPa WSW 10.0mph /  16.1km/h 18.0mph /  29km/h 96% 0.00in /  0mm
00:29 36.2 °F /  2.3 °C 35.2 °F /  1.8 °C 30.05in /  1017.5hPa WSW 10.0mph /  16.1km/h 19.0mph /  30.6km/h 96% 0.00in /  0mm
00:34 36.3 °F /  2.4 °C 35.3 °F /  1.8 °C 30.04in /  1017.2hPa WSW 10.0mph /  16.1km/h 19.0mph /  30.6km/h 96% 0.00in /  0mm
00:39 36.2 °F /  2.3 °C 35.2 °F /  1.8 °C 30.04in /  1017.2hPa WSW 9.0mph /  14.5km/h 16.0mph /  25.7km/h 96% 0.00in /  0mm
00:44 36.2 °F /  2.3 °C 35.2 °F /  1.8 °C 30.04in /  1017.2hPa SSW 6.0mph /  9.7km/h 13.0mph /  20.9km/h 96% 0.00in /  0mm
00:49 36.2 °F /  2.3 °C 35.2 °F /  1.8 °C 30.05in /  1017.5hPa WSW 6.0mph /  9.7km/h 15.0mph /  24.1km/h 96% 0.01in /  0.25mm
00:54 36.2 °F /  2.3 °C 35.2 °F /  1.8 °C 30.05in /  1017.5hPa SW 8.0mph /  12.9km/h 15.0mph /  24.1km/h 96% 0.01in /  0.25mm
00:59 36.1 °F /  2.3 °C 34.8 °F /  1.6 °C 30.05in /  1017.5hPa WSW 8.0mph /  12.9km/h 15.0mph /  24.1km/h 95% 0.01in /  0.25mm
01:04 36.0 °F /  2.2 °C 34.7 °F /  1.5 °C 30.05in /  1017.5hPa WSW 7.0mph /  11.3km/h 16.0mph /  25.7km/h 95% 0.01in /  0.25mm
01:09 36.0 °F /  2.2 °C 34.7 °F /  1.5 °C 30.05in /  1017.5hPa WSW 11.0mph /  17.7km/h 12.0mph /  19.3km/h 95% 0.01in /  0.25mm
01:14 35.9 °F /  2.2 °C 34.6 °F /  1.4 °C 30.05in /  1017.5hPa SW 11.0mph /  17.7km/h 13.0mph /  20.9km/h 95% 0.01in /  0.25mm
01:19 35.9 °F /  2.2 °C 34.6 °F /  1.4 °C 30.05in /  1017.5hPa WSW 4.0mph /  6.4km/h 14.0mph /  22.5km/h 95% 0.01in /  0.25mm
01:24 35.9 °F /  2.2 °C 34.6 °F /  1.4 °C 30.05in /  1017.5hPa WSW 6.0mph /  9.7km/h 14.0mph /  22.5km/h 95% 0.01in /  0.25mm
01:29 35.8 °F /  2.1 °C 34.5 °F /  1.4 °C 30.05in /  1017.5hPa WSW 7.0mph /  11.3km/h 15.0mph /  24.1km/h 95% 0.01in /  0.25mm
01:34 35.7 °F /  2.1 °C 34.4 °F /  1.3 °C 30.05in /  1017.5hPa WSW 7.0mph /  11.3km/h 15.0mph /  24.1km/h 95% 0.01in /  0.25mm
01:39 35.7 °F /  2.1 °C 34.4 °F /  1.3 °C 30.05in /  1017.5hPa WSW 6.0mph /  9.7km/h 16.0mph /  25.7km/h 95% 0.01in /  0.25mm
01:44 35.6 °F /  2 °C 34.3 °F /  1.3 °C 30.05in /  1017.5hPa South 12.0mph /  19.3km/h 12.0mph /  19.3km/h 95% 0.01in /  0.25mm
01:49 35.6 °F /  2 °C 34.3 °F /  1.3 °C 30.05in /  1017.5hPa WSW 6.0mph /  9.7km/h 15.0mph /  24.1km/h 95% 0.00in /  0mm
01:54 35.6 °F /  2 °C 34.3 °F /  1.3 °C 30.05in /  1017.5hPa SW 6.0mph /  9.7km/h 15.0mph /  24.1km/h 95% 0.00in /  0mm
01:59 35.6 °F /  2 °C 34.3 °F /  1.3 °C 30.05in /  1017.5hPa WSW 6.0mph /  9.7km/h 13.0mph /  20.9km/h 95% 0.00in /  0mm
02:04 35.6 °F /  2 °C 34.3 °F /  1.3 °C 30.05in /  1017.5hPa WSW 7.0mph /  11.3km/h 13.0mph /  20.9km/h 95% 0.00in /  0mm
02:09 35.5 °F /  1.9 °C 34.2 °F /  1.2 °C 30.06in /  1017.8hPa WSW 6.0mph /  9.7km/h 14.0mph /  22.5km/h 95% 0.00in /  0mm
02:14 35.6 °F /  2 °C 34.3 °F /  1.3 °C 30.06in /  1017.8hPa WNW 4.0mph /  6.4km/h 15.0mph /  24.1km/h 95% 0.00in /  0mm
02:19 35.5 °F /  1.9 °C 34.2 °F /  1.2 °C 30.06in /  1017.8hPa West 4.0mph /  6.4km/h 11.0mph /  17.7km/h 95% 0.00in /  0mm
02:24 35.5 °F /  1.9 °C 34.2 °F /  1.2 °C 30.06in /  1017.8hPa West 5.0mph /  8km/h 13.0mph /  20.9km/h 95% 0.00in /  0mm
02:29 35.5 °F /  1.9 °C 34.2 °F /  1.2 °C 30.06in /  1017.8hPa WSW 11.0mph /  17.7km/h 15.0mph /  24.1km/h 95% 0.00in /  0mm
02:34 35.5 °F /  1.9 °C 34.2 °F /  1.2 °C 30.06in /  1017.8hPa WSW 8.0mph /  12.9km/h 16.0mph /  25.7km/h 95% 0.00in /  0mm
02:39 35.5 °F /  1.9 °C 34.2 °F /  1.2 °C 30.06in /  1017.8hPa SW 11.0mph /  17.7km/h 16.0mph /  25.7km/h 95% 0.00in /  0mm
02:44 35.5 °F /  1.9 °C 33.9 °F /  1.1 °C 30.06in /  1017.8hPa WSW 8.0mph /  12.9km/h 16.0mph /  25.7km/h 94% 0.00in /  0mm
02:49 35.5 °F /  1.9 °C 33.9 °F /  1.1 °C 30.06in /  1017.8hPa WSW 7.0mph /  11.3km/h 17.0mph /  27.4km/h 94% 0.00in /  0mm
02:54 35.6 °F /  2 °C 34.0 °F /  1.1 °C 30.05in /  1017.5hPa WSW 9.0mph /  14.5km/h 17.0mph /  27.4km/h 94% 0.00in /  0mm
02:59 35.5 °F /  1.9 °C 33.9 °F /  1.1 °C 30.05in /  1017.5hPa SW 5.0mph /  8km/h 14.0mph /  22.5km/h 94% 0.00in /  0mm
03:04 35.5 °F /  1.9 °C 33.9 °F /  1.1 °C 30.05in /  1017.5hPa SW 8.0mph /  12.9km/h 17.0mph /  27.4km/h 94% 0.00in /  0mm
03:09 35.4 °F /  1.9 °C 33.8 °F /  1 °C 30.05in /  1017.5hPa WSW 9.0mph /  14.5km/h 20.0mph /  32.2km/h 94% 0.00in /  0mm
03:14 35.4 °F /  1.9 °C 33.8 °F /  1 °C 30.05in /  1017.5hPa WSW 9.0mph /  14.5km/h 20.0mph /  32.2km/h 94% 0.00in /  0mm
03:19 35.3 °F /  1.8 °C 33.7 °F /  0.9 °C 30.05in /  1017.5hPa SSW 4.0mph /  6.4km/h 17.0mph /  27.4km/h 94% 0.00in /  0mm
03:24 35.3 °F /  1.8 °C 33.7 °F /  0.9 °C 30.06in /  1017.8hPa SSW 9.0mph /  14.5km/h 21.0mph /  33.8km/h 94% 0.00in /  0mm
03:29 35.2 °F /  1.8 °C 33.4 °F /  0.8 °C 30.06in /  1017.8hPa West 6.0mph /  9.7km/h 15.0mph /  24.1km/h 93% 0.00in /  0mm
03:34 35.1 °F /  1.7 °C 33.3 °F /  0.7 °C 30.06in /  1017.8hPa WSW 9.0mph /  14.5km/h 22.0mph /  35.4km/h 93% 0.00in /  0mm
03:39 35.1 °F /  1.7 °C 33.3 °F /  0.7 °C 30.06in /  1017.8hPa WSW 9.0mph /  14.5km/h 22.0mph /  35.4km/h 93% 0.00in /  0mm
03:44 35.1 °F /  1.7 °C 33.3 °F /  0.7 °C 30.05in /  1017.5hPa WSW 9.0mph /  14.5km/h 18.0mph /  29km/h 93% 0.00in /  0mm
03:49 35.1 °F /  1.7 °C 33.3 °F /  0.7 °C 30.04in /  1017.2hPa WSW 9.0mph /  14.5km/h 19.0mph /  30.6km/h 93% 0.00in /  0mm
03:54 35.0 °F /  1.7 °C 33.2 °F /  0.7 °C 30.04in /  1017.2hPa WSW 10.0mph /  16.1km/h 19.0mph /  30.6km/h 93% 0.00in /  0mm
03:59 35.0 °F /  1.7 °C 33.2 °F /  0.7 °C 30.04in /  1017.2hPa West 10.0mph /  16.1km/h 21.0mph /  33.8km/h 93% 0.00in /  0mm
04:04 35.1 °F /  1.7 °C 33.3 °F /  0.7 °C 30.05in /  1017.5hPa SW 9.0mph /  14.5km/h 18.0mph /  29km/h 93% 0.00in /  0mm
04:09 35.1 °F /  1.7 °C 33.0 °F /  0.6 °C 30.05in /  1017.5hPa SW 11.0mph /  17.7km/h 18.0mph /  29km/h 92% 0.00in /  0mm
04:14 35.0 °F /  1.7 °C 32.9 °F /  0.5 °C 30.04in /  1017.2hPa West 5.0mph /  8km/h 18.0mph /  29km/h 92% 0.00in /  0mm
04:19 35.0 °F /  1.7 °C 32.9 °F /  0.5 °C 30.04in /  1017.2hPa WNW 14.0mph /  22.5km/h 18.0mph /  29km/h 92% 0.00in /  0mm
04:24 34.9 °F /  1.6 °C 32.8 °F /  0.4 °C 30.04in /  1017.2hPa West 6.0mph /  9.7km/h 14.0mph /  22.5km/h 92% 0.00in /  0mm
04:29 35.0 °F /  1.7 °C 32.9 °F /  0.5 °C 30.04in /  1017.2hPa West 5.0mph /  8km/h 16.0mph /  25.7km/h 92% 0.00in /  0mm
04:34 35.0 °F /  1.7 °C 32.9 °F /  0.5 °C 30.04in /  1017.2hPa West 7.0mph /  11.3km/h 16.0mph /  25.7km/h 92% 0.00in /  0mm
04:39 34.9 °F /  1.6 °C 32.8 °F /  0.4 °C 30.04in /  1017.2hPa WSW 8.0mph /  12.9km/h 17.0mph /  27.4km/h 92% 0.00in /  0mm
04:49 34.9 °F /  1.6 °C 32.8 °F /  0.4 °C 30.04in /  1017.2hPa West 6.0mph /  9.7km/h 14.0mph /  22.5km/h 92% 0.00in /  0mm
04:54 34.9 °F /  1.6 °C 32.8 °F /  0.4 °C 30.04in /  1017.2hPa West 8.0mph /  12.9km/h 13.0mph /  20.9km/h 92% 0.00in /  0mm
04:59 34.8 °F /  1.6 °C 32.7 °F /  0.4 °C 30.04in /  1017.2hPa WSW 7.0mph /  11.3km/h 17.0mph /  27.4km/h 92% 0.00in /  0mm
05:04 34.8 °F /  1.6 °C 32.7 °F /  0.4 °C 30.05in /  1017.5hPa West 8.0mph /  12.9km/h 17.0mph /  27.4km/h 92% 0.00in /  0mm
05:09 34.8 °F /  1.6 °C 32.7 °F /  0.4 °C 30.05in /  1017.5hPa West 7.0mph /  11.3km/h 15.0mph /  24.1km/h 92% 0.00in /  0mm
05:14 34.8 °F /  1.6 °C 32.7 °F /  0.4 °C 30.06in /  1017.8hPa West 5.0mph /  8km/h 14.0mph /  22.5km/h 92% 0.00in /  0mm
05:19 34.7 °F /  1.5 °C 32.6 °F /  0.3 °C 30.06in /  1017.8hPa SSW 7.0mph /  11.3km/h 15.0mph /  24.1km/h 92% 0.00in /  0mm
05:24 34.7 °F /  1.5 °C 32.6 °F /  0.3 °C 30.06in /  1017.8hPa WSW 10.0mph /  16.1km/h 17.0mph /  27.4km/h 92% 0.00in /  0mm
05:29 34.6 °F /  1.4 °C 32.5 °F /  0.3 °C 30.06in /  1017.8hPa WNW 5.0mph /  8km/h 13.0mph /  20.9km/h 92% 0.00in /  0mm
05:34 34.6 °F /  1.4 °C 32.5 °F /  0.3 °C 30.07in /  1018.2hPa WSW 7.0mph /  11.3km/h 11.0mph /  17.7km/h 92% 0.00in /  0mm
05:39 34.6 °F /  1.4 °C 32.5 °F /  0.3 °C 30.06in /  1017.8hPa West 7.0mph /  11.3km/h 16.0mph /  25.7km/h 92% 0.00in /  0mm
05:44 34.6 °F /  1.4 °C 32.5 °F /  0.3 °C 30.07in /  1018.2hPa WSW 8.0mph /  12.9km/h 14.0mph /  22.5km/h 92% 0.00in /  0mm
05:49 34.6 °F /  1.4 °C 32.5 °F /  0.3 °C 30.07in /  1018.2hPa West 4.0mph /  6.4km/h 16.0mph /  25.7km/h 92% 0.00in /  0mm
05:54 34.6 °F /  1.4 °C 32.5 °F /  0.3 °C 30.07in /  1018.2hPa WSW 3.0mph /  4.8km/h 14.0mph /  22.5km/h 92% 0.00in /  0mm
05:59 34.6 °F /  1.4 °C 32.8 °F /  0.4 °C 30.07in /  1018.2hPa West 5.0mph /  8km/h 13.0mph /  20.9km/h 93% 0.00in /  0mm
06:04 34.5 °F /  1.4 °C 32.7 °F /  0.4 °C 30.07in /  1018.2hPa West 7.0mph /  11.3km/h 16.0mph /  25.7km/h 93% 0.00in /  0mm
06:09 34.6 °F /  1.4 °C 32.8 °F /  0.4 °C 30.07in /  1018.2hPa West 8.0mph /  12.9km/h 16.0mph /  25.7km/h 93% 0.00in /  0mm
06:14 34.6 °F /  1.4 °C 32.5 °F /  0.3 °C 30.08in /  1018.5hPa West 8.0mph /  12.9km/h 15.0mph /  24.1km/h 92% 0.00in /  0mm
06:19 34.6 °F /  1.4 °C 32.8 °F /  0.4 °C 30.08in /  1018.5hPa SW 9.0mph /  14.5km/h 13.0mph /  20.9km/h 93% 0.00in /  0mm
06:24 34.5 °F /  1.4 °C 32.7 °F /  0.4 °C 30.08in /  1018.5hPa West 7.0mph /  11.3km/h 15.0mph /  24.1km/h 93% 0.00in /  0mm
06:29 34.4 °F /  1.3 °C 32.3 °F /  0.2 °C 30.08in /  1018.5hPa WSW 5.0mph /  8km/h 13.0mph /  20.9km/h 92% 0.00in /  0mm
06:34 34.4 °F /  1.3 °C 32.3 °F /  0.2 °C 30.08in /  1018.5hPa West 7.0mph /  11.3km/h 15.0mph /  24.1km/h 92% 0.00in /  0mm
06:39 34.5 °F /  1.4 °C 32.4 °F /  0.2 °C 30.08in /  1018.5hPa West 7.0mph /  11.3km/h 15.0mph /  24.1km/h 92% 0.00in /  0mm
06:44 34.5 °F /  1.4 °C 32.4 °F /  0.2 °C 30.08in /  1018.5hPa West 7.0mph /  11.3km/h 15.0mph /  24.1km/h 92% 0.00in /  0mm
06:49 34.4 °F /  1.3 °C 32.3 °F /  0.2 °C 30.08in /  1018.5hPa West 5.0mph /  8km/h 10.0mph /  16.1km/h 92% 0.00in /  0mm
06:54 34.4 °F /  1.3 °C 32.3 °F /  0.2 °C 30.08in /  1018.5hPa West 7.0mph /  11.3km/h 11.0mph /  17.7km/h 92% 0.00in /  0mm
06:59 34.4 °F /  1.3 °C 32.3 °F /  0.2 °C 30.08in /  1018.5hPa WNW 9.0mph /  14.5km/h 21.0mph /  33.8km/h 92% 0.00in /  0mm
07:04 34.3 °F /  1.3 °C 32.2 °F /  0.1 °C 30.08in /  1018.5hPa West 9.0mph /  14.5km/h 21.0mph /  33.8km/h 92% 0.00in /  0mm
07:09 34.4 °F /  1.3 °C 32.3 °F /  0.2 °C 30.08in /  1018.5hPa West 7.0mph /  11.3km/h 16.0mph /  25.7km/h 92% 0.00in /  0mm
07:14 34.3 °F /  1.3 °C 32.2 °F /  0.1 °C 30.08in /  1018.5hPa West 7.0mph /  11.3km/h 18.0mph /  29km/h 92% 0.00in /  0mm
07:19 34.3 °F /  1.3 °C 32.2 °F /  0.1 °C 30.08in /  1018.5hPa West 7.0mph /  11.3km/h 18.0mph /  29km/h 92% 0.00in /  0mm
07:24 34.3 °F /  1.3 °C 32.2 °F /  0.1 °C 30.08in /  1018.5hPa West 6.0mph /  9.7km/h 12.0mph /  19.3km/h 92% 0.00in /  0mm
07:29 34.3 °F /  1.3 °C 32.2 °F /  0.1 °C 30.09in /  1018.8hPa West 6.0mph /  9.7km/h 12.0mph /  19.3km/h 92% 0.00in /  0mm
07:34 34.3 °F /  1.3 °C 32.2 °F /  0.1 °C 30.09in /  1018.8hPa WSW 2.0mph /  3.2km/h 15.0mph /  24.1km/h 92% 0.00in /  0mm
07:39 34.2 °F /  1.2 °C 32.1 °F /  0.1 °C 30.09in /  1018.8hPa WSW 7.0mph /  11.3km/h 12.0mph /  19.3km/h 92% 0.00in /  0mm
07:44 34.3 °F /  1.3 °C 32.2 °F /  0.1 °C 30.09in /  1018.8hPa SW 5.0mph /  8km/h 12.0mph /  19.3km/h 92% 0.00in /  0mm
07:49 34.2 °F /  1.2 °C 32.1 °F /  0.1 °C 30.09in /  1018.8hPa WSW 2.0mph /  3.2km/h 12.0mph /  19.3km/h 92% 0.00in /  0mm
07:54 34.2 °F /  1.2 °C 32.1 °F /  0.1 °C 30.10in /  1019.2hPa SW 4.0mph /  6.4km/h 14.0mph /  22.5km/h 92% 0.00in /  0mm
07:59 34.2 °F /  1.2 °C 32.1 °F /  0.1 °C 30.10in /  1019.2hPa West 3.0mph /  4.8km/h 14.0mph /  22.5km/h 92% 0.00in /  0mm
08:04 34.1 °F /  1.2 °C 32.3 °F /  0.2 °C 30.10in /  1019.2hPa West 10.0mph /  16.1km/h 11.0mph /  17.7km/h 93% 0.00in /  0mm
08:09 34.1 °F /  1.2 °C 32.3 °F /  0.2 °C 30.10in /  1019.2hPa West 6.0mph /  9.7km/h 11.0mph /  17.7km/h 93% 0.00in /  0mm
08:14 34.1 °F /  1.2 °C 32.0 °F /  0 °C 30.10in /  1019.2hPa West 6.0mph /  9.7km/h 13.0mph /  20.9km/h 92% 0.00in /  0mm
08:19 34.1 °F /  1.2 °C 32.0 °F /  0 °C 30.10in /  1019.2hPa West 6.0mph /  9.7km/h 13.0mph /  20.9km/h 92% 0.00in /  0mm
08:24 34.0 °F /  1.1 °C 31.9 °F /  -0.1 °C 30.10in /  1019.2hPa West 7.0mph /  11.3km/h 15.0mph /  24.1km/h 92% 0.00in /  0mm
08:29 34.0 °F /  1.1 °C 31.9 °F /  -0.1 °C 30.10in /  1019.2hPa West 7.0mph /  11.3km/h 15.0mph /  24.1km/h 92% 0.00in /  0mm
08:34 34.0 °F /  1.1 °C 31.9 °F /  -0.1 °C 30.10in /  1019.2hPa West 7.0mph /  11.3km/h 14.0mph /  22.5km/h 92% 0.00in /  0mm
08:39 34.0 °F /  1.1 °C 31.9 °F /  -0.1 °C 30.10in /  1019.2hPa West 7.0mph /  11.3km/h 17.0mph /  27.4km/h 92% 0.00in /  0mm
08:44 33.9 °F /  1.1 °C 31.8 °F /  -0.1 °C 30.10in /  1019.2hPa West 2.0mph /  3.2km/h 10.0mph /  16.1km/h 92% 0.00in /  0mm
08:49 33.9 °F /  1.1 °C 31.8 °F /  -0.1 °C 30.10in /  1019.2hPa WSW 5.0mph /  8km/h 16.0mph /  25.7km/h 92% 0.00in /  0mm
08:54 34.0 °F /  1.1 °C 31.9 °F /  -0.1 °C 30.10in /  1019.2hPa WSW 3.0mph /  4.8km/h 12.0mph /  19.3km/h 92% 0.00in /  0mm
08:59 34.0 °F /  1.1 °C 31.9 °F /  -0.1 °C 30.10in /  1019.2hPa WSW 7.0mph /  11.3km/h 13.0mph /  20.9km/h 92% 0.00in /  0mm
09:04 34.0 °F /  1.1 °C 31.9 °F /  -0.1 °C 30.11in /  1019.5hPa WNW 5.0mph /  8km/h 9.0mph /  14.5km/h 92% 0.00in /  0mm
09:09 34.1 °F /  1.2 °C 32.0 °F /  0 °C 30.11in /  1019.5hPa WNW 2.0mph /  3.2km/h 11.0mph /  17.7km/h 92% 0.00in /  0mm
09:14 34.1 °F /  1.2 °C 31.7 °F /  -0.2 °C 30.11in /  1019.5hPa West 6.0mph /  9.7km/h 11.0mph /  17.7km/h 91% 0.00in /  0mm
09:19 34.2 °F /  1.2 °C 31.8 °F /  -0.1 °C 30.11in /  1019.5hPa West 6.0mph /  9.7km/h 12.0mph /  19.3km/h 91% 0.00in /  0mm
09:24 34.3 °F /  1.3 °C 31.9 °F /  -0.1 °C 30.11in /  1019.5hPa West 6.0mph /  9.7km/h 12.0mph /  19.3km/h 91% 0.00in /  0mm
09:29 34.3 °F /  1.3 °C 31.9 °F /  -0.1 °C 30.11in /  1019.5hPa West 6.0mph /  9.7km/h 12.0mph /  19.3km/h 91% 0.00in /  0mm
09:34 34.3 °F /  1.3 °C 31.9 °F /  -0.1 °C 30.11in /  1019.5hPa West 6.0mph /  9.7km/h 12.0mph /  19.3km/h 91% 0.00in /  0mm
09:39 34.3 °F /  1.3 °C 31.9 °F /  -0.1 °C 30.11in /  1019.5hPa West 6.0mph /  9.7km/h 13.0mph /  20.9km/h 91% 0.00in /  0mm
09:44 34.3 °F /  1.3 °C 31.9 °F /  -0.1 °C 30.12in /  1019.9hPa West 7.0mph /  11.3km/h 14.0mph /  22.5km/h 91% 0.00in /  0mm
09:49 34.3 °F /  1.3 °C 31.9 °F /  -0.1 °C 30.12in /  1019.9hPa WSW 6.0mph /  9.7km/h 13.0mph /  20.9km/h 91% 0.00in /  0mm
09:54 34.3 °F /  1.3 °C 31.9 °F /  -0.1 °C 30.12in /  1019.9hPa West 4.0mph /  6.4km/h 9.0mph /  14.5km/h 91% 0.00in /  0mm
09:59 34.3 °F /  1.3 °C 31.9 °F /  -0.1 °C 30.12in /  1019.9hPa West 5.0mph /  8km/h 12.0mph /  19.3km/h 91% 0.00in /  0mm
10:04 34.3 °F /  1.3 °C 32.2 °F /  0.1 °C 30.12in /  1019.9hPa West 5.0mph /  8km/h 14.0mph /  22.5km/h 92% 0.00in /  0mm
10:09 34.3 °F /  1.3 °C 32.2 °F /  0.1 °C 30.12in /  1019.9hPa WNW 8.0mph /  12.9km/h 10.0mph /  16.1km/h 92% 0.00in /  0mm
10:14 34.3 °F /  1.3 °C 32.2 °F /  0.1 °C 30.12in /  1019.9hPa West 4.0mph /  6.4km/h 11.0mph /  17.7km/h 92% 0.00in /  0mm
10:19 34.3 °F /  1.3 °C 32.2 °F /  0.1 °C 30.12in /  1019.9hPa West 5.0mph /  8km/h 11.0mph /  17.7km/h 92% 0.00in /  0mm
10:24 34.3 °F /  1.3 °C 32.2 °F /  0.1 °C 30.12in /  1019.9hPa West 6.0mph /  9.7km/h 12.0mph /  19.3km/h 92% 0.00in /  0mm
10:29 34.4 °F /  1.3 °C 32.3 °F /  0.2 °C 30.12in /  1019.9hPa West 5.0mph /  8km/h 15.0mph /  24.1km/h 92% 0.00in /  0mm
10:34 34.6 °F /  1.4 °C 32.5 °F /  0.3 °C 30.12in /  1019.9hPa West 5.0mph /  8km/h 15.0mph /  24.1km/h 92% 0.00in /  0mm
10:39 34.6 °F /  1.4 °C 32.2 °F /  0.1 °C 30.12in /  1019.9hPa WNW 6.0mph /  9.7km/h 13.0mph /  20.9km/h 91% 0.00in /  0mm
10:44 34.5 °F /  1.4 °C 32.1 °F /  0.1 °C 30.12in /  1019.9hPa WNW 8.0mph /  12.9km/h 13.0mph /  20.9km/h 91% 0.00in /  0mm
10:49 34.4 °F /  1.3 °C 32.0 °F /  0 °C 30.12in /  1019.9hPa West 6.0mph /  9.7km/h 13.0mph /  20.9km/h 91% 0.00in /  0mm
10:54 34.4 °F /  1.3 °C 32.0 °F /  0 °C 30.12in /  1019.9hPa West 6.0mph /  9.7km/h 13.0mph /  20.9km/h 91% 0.00in /  0mm
10:59 34.4 °F /  1.3 °C 32.0 °F /  0 °C 30.12in /  1019.9hPa West 8.0mph /  12.9km/h 13.0mph /  20.9km/h 91% 0.00in /  0mm
11:04 34.4 °F /  1.3 °C 32.0 °F /  0 °C 30.11in /  1019.5hPa WSW 6.0mph /  9.7km/h 13.0mph /  20.9km/h 91% 0.00in /  0mm
11:09 34.5 °F /  1.4 °C 32.4 °F /  0.2 °C 30.11in /  1019.5hPa WSW 4.0mph /  6.4km/h 10.0mph /  16.1km/h 92% 0.00in /  0mm
11:14 34.6 °F /  1.4 °C 32.2 °F /  0.1 °C 30.11in /  1019.5hPa West 5.0mph /  8km/h 10.0mph /  16.1km/h 91% 0.00in /  0mm
11:19 34.6 °F /  1.4 °C 32.2 °F /  0.1 °C 30.11in /  1019.5hPa West 5.0mph /  8km/h 10.0mph /  16.1km/h 91% 0.00in /  0mm
11:24 34.6 °F /  1.4 °C 32.2 °F /  0.1 °C 30.11in /  1019.5hPa WNW 6.0mph /  9.7km/h 10.0mph /  16.1km/h 91% 0.00in /  0mm
11:29 34.7 °F /  1.5 °C 32.3 °F /  0.2 °C 30.11in /  1019.5hPa West 6.0mph /  9.7km/h 9.0mph /  14.5km/h 91% 0.00in /  0mm
11:34 34.7 °F /  1.5 °C 32.1 °F /  0.1 °C 30.11in /  1019.5hPa West 7.0mph /  11.3km/h 9.0mph /  14.5km/h 90% 0.00in /  0mm
11:39 34.8 °F /  1.6 °C 32.4 °F /  0.2 °C 30.10in /  1019.2hPa West 9.0mph /  14.5km/h 9.0mph /  14.5km/h 91% 0.00in /  0mm
11:44 34.9 °F /  1.6 °C 32.5 °F /  0.3 °C 30.10in /  1019.2hPa West 5.0mph /  8km/h 9.0mph /  14.5km/h 91% 0.00in /  0mm
11:49 35.0 °F /  1.7 °C 32.6 °F /  0.3 °C 30.10in /  1019.2hPa West 4.0mph /  6.4km/h 9.0mph /  14.5km/h 91% 0.00in /  0mm
11:54 35.1 °F /  1.7 °C 32.7 °F /  0.4 °C 30.09in /  1018.8hPa West 4.0mph /  6.4km/h 9.0mph /  14.5km/h 91% 0.00in /  0mm
11:59 35.0 °F /  1.7 °C 32.6 °F /  0.3 °C 30.09in /  1018.8hPa West 4.0mph /  6.4km/h 10.0mph /  16.1km/h 91% 0.00in /  0mm
12:04 34.8 °F /  1.6 °C 32.4 °F /  0.2 °C 30.08in /  1018.5hPa WSW 5.0mph /  8km/h 12.0mph /  19.3km/h 91% 0.00in /  0mm
12:09 34.9 °F /  1.6 °C 32.5 °F /  0.3 °C 30.08in /  1018.5hPa WSW 3.0mph /  4.8km/h 9.0mph /  14.5km/h 91% 0.00in /  0mm
12:14 34.8 °F /  1.6 °C 32.4 °F /  0.2 °C 30.08in /  1018.5hPa WSW 5.0mph /  8km/h 11.0mph /  17.7km/h 91% 0.00in /  0mm
12:19 34.8 °F /  1.6 °C 32.4 °F /  0.2 °C 30.08in /  1018.5hPa WSW 6.0mph /  9.7km/h 13.0mph /  20.9km/h 91% 0.00in /  0mm
12:24 34.6 °F /  1.4 °C 32.2 °F /  0.1 °C 30.08in /  1018.5hPa WSW 6.0mph /  9.7km/h 13.0mph /  20.9km/h 91% 0.00in /  0mm
12:29 34.6 °F /  1.4 °C 32.5 °F /  0.3 °C 30.07in /  1018.2hPa West 1.0mph /  1.6km/h 12.0mph /  19.3km/h 92% 0.00in /  0mm
12:34 34.8 °F /  1.6 °C 32.7 °F /  0.4 °C 30.07in /  1018.2hPa WSW 4.0mph /  6.4km/h 7.0mph /  11.3km/h 92% 0.00in /  0mm
12:39 34.8 °F /  1.6 °C 32.7 °F /  0.4 °C 30.07in /  1018.2hPa WSW 6.0mph /  9.7km/h 11.0mph /  17.7km/h 92% 0.00in /  0mm
12:44 34.6 °F /  1.4 °C 32.5 °F /  0.3 °C 30.06in /  1017.8hPa West 6.0mph /  9.7km/h 14.0mph /  22.5km/h 92% 0.00in /  0mm
12:49 34.6 °F /  1.4 °C 32.5 °F /  0.3 °C 30.06in /  1017.8hPa WSW 5.0mph /  8km/h 14.0mph /  22.5km/h 92% 0.00in /  0mm
12:54 34.7 °F /  1.5 °C 32.6 °F /  0.3 °C 30.06in /  1017.8hPa West 4.0mph /  6.4km/h 9.0mph /  14.5km/h 92% 0.00in /  0mm
12:59 34.6 °F /  1.4 °C 32.5 °F /  0.3 °C 30.06in /  1017.8hPa West 5.0mph /  8km/h 12.0mph /  19.3km/h 92% 0.00in /  0mm
13:04 34.6 °F /  1.4 °C 32.5 °F /  0.3 °C 30.06in /  1017.8hPa West 5.0mph /  8km/h 12.0mph /  19.3km/h 92% 0.00in /  0mm
13:09 34.6 °F /  1.4 °C 32.5 °F /  0.3 °C 30.06in /  1017.8hPa SW 6.0mph /  9.7km/h 9.0mph /  14.5km/h 92% 0.00in /  0mm
13:14 34.6 °F /  1.4 °C 32.5 °F /  0.3 °C 30.06in /  1017.8hPa West 4.0mph /  6.4km/h 9.0mph /  14.5km/h 92% 0.00in /  0mm
13:19 34.6 °F /  1.4 °C 32.5 °F /  0.3 °C 30.05in /  1017.5hPa SSW 4.0mph /  6.4km/h 10.0mph /  16.1km/h 92% 0.00in /  0mm
13:24 34.7 °F /  1.5 °C 32.6 °F /  0.3 °C 30.05in /  1017.5hPa West 6.0mph /  9.7km/h 8.0mph /  12.9km/h 92% 0.00in /  0mm
13:29 34.6 °F /  1.4 °C 32.5 °F /  0.3 °C 30.05in /  1017.5hPa West 3.0mph /  4.8km/h 9.0mph /  14.5km/h 92% 0.00in /  0mm
13:34 34.7 °F /  1.5 °C 32.6 °F /  0.3 °C 30.05in /  1017.5hPa WSW 4.0mph /  6.4km/h 10.0mph /  16.1km/h 92% 0.00in /  0mm
13:39 34.8 °F /  1.6 °C 32.7 °F /  0.4 °C 30.04in /  1017.2hPa West 4.0mph /  6.4km/h 8.0mph /  12.9km/h 92% 0.00in /  0mm
13:44 34.8 °F /  1.6 °C 33.0 °F /  0.6 °C 30.04in /  1017.2hPa West 4.0mph /  6.4km/h 8.0mph /  12.9km/h 93% 0.00in /  0mm
13:49 34.7 °F /  1.5 °C 32.6 °F /  0.3 °C 30.03in /  1016.8hPa West 4.0mph /  6.4km/h 8.0mph /  12.9km/h 92% 0.00in /  0mm
13:54 34.6 °F /  1.4 °C 32.5 °F /  0.3 °C 30.04in /  1017.2hPa West 4.0mph /  6.4km/h 8.0mph /  12.9km/h 92% 0.00in /  0mm
13:59 34.6 °F /  1.4 °C 32.8 °F /  0.4 °C 30.03in /  1016.8hPa West 4.0mph /  6.4km/h 8.0mph /  12.9km/h 93% 0.00in /  0mm
14:04 34.6 °F /  1.4 °C 32.8 °F /  0.4 °C 30.04in /  1017.2hPa West 4.0mph /  6.4km/h 8.0mph /  12.9km/h 93% 0.00in /  0mm
14:09 34.6 °F /  1.4 °C 32.8 °F /  0.4 °C 30.04in /  1017.2hPa West 4.0mph /  6.4km/h 7.0mph /  11.3km/h 93% 0.00in /  0mm
14:14 34.6 °F /  1.4 °C 32.8 °F /  0.4 °C 30.04in /  1017.2hPa West 2.0mph /  3.2km/h 8.0mph /  12.9km/h 93% 0.00in /  0mm
14:19 34.6 °F /  1.4 °C 32.8 °F /  0.4 °C 30.04in /  1017.2hPa West 2.0mph /  3.2km/h 7.0mph /  11.3km/h 93% 0.00in /  0mm
14:24 34.6 °F /  1.4 °C 32.8 °F /  0.4 °C 30.03in /  1016.8hPa West 5.0mph /  8km/h 6.0mph /  9.7km/h 93% 0.00in /  0mm
14:29 34.6 °F /  1.4 °C 32.8 °F /  0.4 °C 30.03in /  1016.8hPa West 4.0mph /  6.4km/h 6.0mph /  9.7km/h 93% 0.00in /  0mm
14:34 34.6 °F /  1.4 °C 32.8 °F /  0.4 °C 30.03in /  1016.8hPa West 5.0mph /  8km/h 7.0mph /  11.3km/h 93% 0.00in /  0mm
14:39 34.6 °F /  1.4 °C 32.8 °F /  0.4 °C 30.03in /  1016.8hPa WSW 2.0mph /  3.2km/h 5.0mph /  8km/h 93% 0.00in /  0mm
14:44 34.7 °F /  1.5 °C 32.9 °F /  0.5 °C 30.02in /  1016.5hPa WSW 3.0mph /  4.8km/h 6.0mph /  9.7km/h 93% 0.00in /  0mm
14:49 34.7 °F /  1.5 °C 32.9 °F /  0.5 °C 30.02in /  1016.5hPa WSW 4.0mph /  6.4km/h 7.0mph /  11.3km/h 93% 0.00in /  0mm
14:54 34.7 °F /  1.5 °C 32.9 °F /  0.5 °C 30.02in /  1016.5hPa WSW 1.0mph /  1.6km/h 7.0mph /  11.3km/h 93% 0.00in /  0mm
14:59 34.8 °F /  1.6 °C 33.0 °F /  0.6 °C 30.02in /  1016.5hPa WSW 1.0mph /  1.6km/h 5.0mph /  8km/h 93% 0.00in /  0mm
15:04 34.6 °F /  1.4 °C 32.8 °F /  0.4 °C 30.02in /  1016.5hPa WSW 3.0mph /  4.8km/h 6.0mph /  9.7km/h 93% 0.00in /  0mm
15:09 34.6 °F /  1.4 °C 32.8 °F /  0.4 °C 30.02in /  1016.5hPa West 3.0mph /  4.8km/h 9.0mph /  14.5km/h 93% 0.00in /  0mm
15:14 34.4 °F /  1.3 °C 32.6 °F /  0.3 °C 30.02in /  1016.5hPa WSW 5.0mph /  8km/h 7.0mph /  11.3km/h 93% 0.00in /  0mm
15:19 34.4 °F /  1.3 °C 32.6 °F /  0.3 °C 30.02in /  1016.5hPa WSW 4.0mph /  6.4km/h 7.0mph /  11.3km/h 93% 0.00in /  0mm
15:24 34.4 °F /  1.3 °C 32.6 °F /  0.3 °C 30.02in /  1016.5hPa WSW 4.0mph /  6.4km/h 7.0mph /  11.3km/h 93% 0.00in /  0mm
15:29 34.4 °F /  1.3 °C 32.6 °F /  0.3 °C 30.03in /  1016.8hPa West 3.0mph /  4.8km/h 7.0mph /  11.3km/h 93% 0.00in /  0mm
15:34 34.4 °F /  1.3 °C 32.6 °F /  0.3 °C 30.03in /  1016.8hPa West 3.0mph /  4.8km/h 7.0mph /  11.3km/h 93% 0.00in /  0mm
15:39 34.5 °F /  1.4 °C 32.7 °F /  0.4 °C 30.04in /  1017.2hPa West 4.0mph /  6.4km/h 6.0mph /  9.7km/h 93% 0.00in /  0mm
15:44 34.4 °F /  1.3 °C 32.6 °F /  0.3 °C 30.04in /  1017.2hPa WSW 3.0mph /  4.8km/h 6.0mph /  9.7km/h 93% 0.00in /  0mm
15:49 34.6 °F /  1.4 °C 33.1 °F /  0.6 °C 30.03in /  1016.8hPa WSW 3.0mph /  4.8km/h 6.0mph /  9.7km/h 94% 0.00in /  0mm
15:54 34.5 °F /  1.4 °C 32.7 °F /  0.4 °C 30.03in /  1016.8hPa WSW 3.0mph /  4.8km/h 6.0mph /  9.7km/h 93% 0.00in /  0mm
15:59 34.5 °F /  1.4 °C 32.7 °F /  0.4 °C 30.03in /  1016.8hPa WSW 3.0mph /  4.8km/h 5.0mph /  8km/h 93% 0.00in /  0mm
16:04 34.5 °F /  1.4 °C 33.0 °F /  0.6 °C 30.03in /  1016.8hPa WSW 3.0mph /  4.8km/h 5.0mph /  8km/h 94% 0.00in /  0mm
16:09 34.5 °F /  1.4 °C 33.0 °F /  0.6 °C 30.03in /  1016.8hPa WSW 1.0mph /  1.6km/h 4.0mph /  6.4km/h 94% 0.00in /  0mm
16:14 34.5 °F /  1.4 °C 32.7 °F /  0.4 °C 30.02in /  1016.5hPa WSW 3.0mph /  4.8km/h 4.0mph /  6.4km/h 93% 0.00in /  0mm
16:19 34.4 °F /  1.3 °C 32.9 °F /  0.5 °C 30.03in /  1016.8hPa WSW 1.0mph /  1.6km/h 4.0mph /  6.4km/h 94% 0.00in /  0mm
16:24 34.4 °F /  1.3 °C 32.9 °F /  0.5 °C 30.03in /  1016.8hPa WSW 2.0mph /  3.2km/h 4.0mph /  6.4km/h 94% 0.00in /  0mm
16:29 34.5 °F /  1.4 °C 33.0 °F /  0.6 °C 30.03in /  1016.8hPa WSW 2.0mph /  3.2km/h 4.0mph /  6.4km/h 94% 0.00in /  0mm
16:34 34.4 °F /  1.3 °C 32.9 °F /  0.5 °C 30.04in /  1017.2hPa SW 3.0mph /  4.8km/h 5.0mph /  8km/h 94% 0.00in /  0mm
16:39 34.4 °F /  1.3 °C 32.9 °F /  0.5 °C 30.04in /  1017.2hPa SW 2.0mph /  3.2km/h 4.0mph /  6.4km/h 94% 0.00in /  0mm
16:44 34.4 °F /  1.3 °C 32.9 °F /  0.5 °C 30.04in /  1017.2hPa SW 1.0mph /  1.6km/h 3.0mph /  4.8km/h 94% 0.00in /  0mm
16:49 34.4 °F /  1.3 °C 32.6 °F /  0.3 °C 30.03in /  1016.8hPa SW 1.0mph /  1.6km/h 3.0mph /  4.8km/h 93% 0.00in /  0mm
16:54 34.4 °F /  1.3 °C 32.6 °F /  0.3 °C 30.04in /  1017.2hPa SSW 2.0mph /  3.2km/h 4.0mph /  6.4km/h 93% 0.00in /  0mm
16:59 34.3 °F /  1.3 °C 32.5 °F /  0.3 °C 30.05in /  1017.5hPa SSW 2.0mph /  3.2km/h 4.0mph /  6.4km/h 93% 0.00in /  0mm
17:04 34.3 °F /  1.3 °C 32.5 °F /  0.3 °C 30.06in /  1017.8hPa SW 1.0mph /  1.6km/h 4.0mph /  6.4km/h 93% 0.00in /  0mm
17:09 34.3 °F /  1.3 °C 32.5 °F /  0.3 °C 30.06in /  1017.8hPa SSW 2.0mph /  3.2km/h 4.0mph /  6.4km/h 93% 0.00in /  0mm
17:14 34.2 °F /  1.2 °C 32.7 °F /  0.4 °C 30.06in /  1017.8hPa SW 1.0mph /  1.6km/h 5.0mph /  8km/h 94% 0.00in /  0mm
17:19 34.2 °F /  1.2 °C 32.7 °F /  0.4 °C 30.06in /  1017.8hPa SSW 1.0mph /  1.6km/h 3.0mph /  4.8km/h 94% 0.00in /  0mm
17:24 34.1 °F /  1.2 °C 32.6 °F /  0.3 °C 30.06in /  1017.8hPa SSW 2.0mph /  3.2km/h 4.0mph /  6.4km/h 94% 0.00in /  0mm
17:29 34.1 °F /  1.2 °C 32.6 °F /  0.3 °C 30.06in /  1017.8hPa SSW 2.0mph /  3.2km/h 5.0mph /  8km/h 94% 0.00in /  0mm
17:34 34.1 °F /  1.2 °C 32.6 °F /  0.3 °C 30.06in /  1017.8hPa SW 2.0mph /  3.2km/h 5.0mph /  8km/h 94% 0.00in /  0mm
17:39 34.0 °F /  1.1 °C 32.5 °F /  0.3 °C 30.06in /  1017.8hPa SW 2.0mph /  3.2km/h 4.0mph /  6.4km/h 94% 0.00in /  0mm
17:44 34.0 °F /  1.1 °C 32.5 °F /  0.3 °C 30.07in /  1018.2hPa SW 2.0mph /  3.2km/h 4.0mph /  6.4km/h 94% 0.00in /  0mm
17:49 33.9 °F /  1.1 °C 32.4 °F /  0.2 °C 30.07in /  1018.2hPa SW 2.0mph /  3.2km/h 5.0mph /  8km/h 94% 0.01in /  0.25mm
17:54 33.9 °F /  1.1 °C 32.4 °F /  0.2 °C 30.06in /  1017.8hPa SSW 1.0mph /  1.6km/h 4.0mph /  6.4km/h 94% 0.01in /  0.25mm
17:59 33.8 °F /  1 °C 32.3 °F /  0.2 °C 30.07in /  1018.2hPa SW 3.0mph /  4.8km/h 3.0mph /  4.8km/h 94% 0.01in /  0.25mm
18:04 33.8 °F /  1 °C 32.3 °F /  0.2 °C 30.06in /  1017.8hPa SSW 2.0mph /  3.2km/h 3.0mph /  4.8km/h 94% 0.01in /  0.25mm
18:09 33.8 °F /  1 °C 32.3 °F /  0.2 °C 30.07in /  1018.2hPa Calm   5.0mph /  8km/h 94% 0.01in /  0.25mm
18:14 33.8 °F /  1 °C 32.3 °F /  0.2 °C 30.07in /  1018.2hPa SW 4.0mph /  6.4km/h 4.0mph /  6.4km/h 94% 0.01in /  0.25mm
18:19 33.7 °F /  0.9 °C 32.2 °F /  0.1 °C 30.07in /  1018.2hPa SSW 2.0mph /  3.2km/h 4.0mph /  6.4km/h 94% 0.01in /  0.25mm
18:24 33.7 °F /  0.9 °C 32.2 °F /  0.1 °C 30.07in /  1018.2hPa SW 2.0mph /  3.2km/h 4.0mph /  6.4km/h 94% 0.01in /  0.25mm
18:29 33.7 °F /  0.9 °C 32.2 °F /  0.1 °C 30.07in /  1018.2hPa SW 2.0mph /  3.2km/h 4.0mph /  6.4km/h 94% 0.01in /  0.25mm
18:34 33.7 °F /  0.9 °C 32.2 °F /  0.1 °C 30.06in /  1017.8hPa SW 2.0mph /  3.2km/h 4.0mph /  6.4km/h 94% 0.01in /  0.25mm
18:39 33.7 °F /  0.9 °C 32.2 °F /  0.1 °C 30.06in /  1017.8hPa SW 2.0mph /  3.2km/h 5.0mph /  8km/h 94% 0.01in /  0.25mm
18:44 33.6 °F /  0.9 °C 32.1 °F /  0.1 °C 30.06in /  1017.8hPa SW 2.0mph /  3.2km/h 5.0mph /  8km/h 94% 0.01in /  0.25mm
18:49 33.6 °F /  0.9 °C 32.1 °F /  0.1 °C 30.06in /  1017.8hPa SW 2.0mph /  3.2km/h 5.0mph /  8km/h 94% 0.00in /  0mm
18:54 33.5 °F /  0.8 °C 32.0 °F /  0 °C 30.06in /  1017.8hPa Calm     94% 0.00in /  0mm
18:59 33.5 °F /  0.8 °C 32.0 °F /  0 °C 30.06in /  1017.8hPa SW 1.0mph /  1.6km/h 4.0mph /  6.4km/h 94% 0.00in /  0mm
19:04 33.5 °F /  0.8 °C 32.0 °F /  0 °C 30.06in /  1017.8hPa SW 1.0mph /  1.6km/h 4.0mph /  6.4km/h 94% 0.00in /  0mm
19:09 33.5 °F /  0.8 °C 32.0 °F /  0 °C 30.05in /  1017.5hPa Calm   3.0mph /  4.8km/h 94% 0.00in /  0mm
19:14 33.5 °F /  0.8 °C 32.0 °F /  0 °C 30.05in /  1017.5hPa SSW 2.0mph /  3.2km/h 2.0mph /  3.2km/h 94% 0.00in /  0mm
19:19 33.5 °F /  0.8 °C 32.0 °F /  0 °C 30.04in /  1017.2hPa SW 3.0mph /  4.8km/h 3.0mph /  4.8km/h 94% 0.00in /  0mm
19:24 33.4 °F /  0.8 °C 31.9 °F /  -0.1 °C 30.04in /  1017.2hPa SSW 2.0mph /  3.2km/h 3.0mph /  4.8km/h 94% 0.00in /  0mm
19:29 33.4 °F /  0.8 °C 31.9 °F /  -0.1 °C 30.04in /  1017.2hPa SSW 2.0mph /  3.2km/h 3.0mph /  4.8km/h 94% 0.00in /  0mm
19:34 33.4 °F /  0.8 °C 31.9 °F /  -0.1 °C 30.03in /  1016.8hPa SSW 1.0mph /  1.6km/h 3.0mph /  4.8km/h 94% 0.00in /  0mm
19:39 33.5 °F /  0.8 °C 32.0 °F /  0 °C 30.04in /  1017.2hPa South 1.0mph /  1.6km/h 3.0mph /  4.8km/h 94% 0.00in /  0mm
19:44 33.4 °F /  0.8 °C 31.9 °F /  -0.1 °C 30.03in /  1016.8hPa South 1.0mph /  1.6km/h 3.0mph /  4.8km/h 94% 0.00in /  0mm
19:49 33.5 °F /  0.8 °C 32.0 °F /  0 °C 30.04in /  1017.2hPa Calm     94% 0.00in /  0mm
19:54 33.4 °F /  0.8 °C 31.9 °F /  -0.1 °C 30.04in /  1017.2hPa Calm     94% 0.00in /  0mm
19:59 33.5 °F /  0.8 °C 32.0 °F /  0 °C 30.04in /  1017.2hPa Calm     94% 0.00in /  0mm
20:04 33.5 °F /  0.8 °C 32.0 °F /  0 °C 30.03in /  1016.8hPa SSW 1.0mph /  1.6km/h 4.0mph /  6.4km/h 94% 0.00in /  0mm
20:09 33.5 °F /  0.8 °C 32.0 °F /  0 °C 30.04in /  1017.2hPa SSW 1.0mph /  1.6km/h 4.0mph /  6.4km/h 94% 0.00in /  0mm
20:14 33.5 °F /  0.8 °C 32.0 °F /  0 °C 30.04in /  1017.2hPa South 2.0mph /  3.2km/h 3.0mph /  4.8km/h 94% 0.00in /  0mm
20:19 33.6 °F /  0.9 °C 32.1 °F /  0.1 °C 30.04in /  1017.2hPa South 2.0mph /  3.2km/h 3.0mph /  4.8km/h 94% 0.00in /  0mm
20:24 33.6 °F /  0.9 °C 32.1 °F /  0.1 °C 30.03in /  1016.8hPa South 1.0mph /  1.6km/h 4.0mph /  6.4km/h 94% 0.00in /  0mm
20:29 33.6 °F /  0.9 °C 32.1 °F /  0.1 °C 30.04in /  1017.2hPa South 2.0mph /  3.2km/h 3.0mph /  4.8km/h 94% 0.00in /  0mm
20:34 33.6 °F /  0.9 °C 32.1 °F /  0.1 °C 30.04in /  1017.2hPa South 2.0mph /  3.2km/h 4.0mph /  6.4km/h 94% 0.00in /  0mm
20:39 33.6 °F /  0.9 °C 32.1 °F /  0.1 °C 30.03in /  1016.8hPa South 2.0mph /  3.2km/h 4.0mph /  6.4km/h 94% 0.00in /  0mm
20:44 33.6 °F /  0.9 °C 32.1 °F /  0.1 °C 30.03in /  1016.8hPa South 2.0mph /  3.2km/h 3.0mph /  4.8km/h 94% 0.00in /  0mm
20:49 33.6 °F /  0.9 °C 32.1 °F /  0.1 °C 30.02in /  1016.5hPa South 2.0mph /  3.2km/h 2.0mph /  3.2km/h 94% 0.00in /  0mm
20:54 33.7 °F /  0.9 °C 32.2 °F /  0.1 °C 30.02in /  1016.5hPa South 2.0mph /  3.2km/h 4.0mph /  6.4km/h 94% 0.00in /  0mm
20:59 33.7 °F /  0.9 °C 32.2 °F /  0.1 °C 30.02in /  1016.5hPa South 2.0mph /  3.2km/h 4.0mph /  6.4km/h 94% 0.00in /  0mm
21:04 33.7 °F /  0.9 °C 32.4 °F /  0.2 °C 30.02in /  1016.5hPa South 2.0mph /  3.2km/h 4.0mph /  6.4km/h 95% 0.00in /  0mm
21:09 33.7 °F /  0.9 °C 32.4 °F /  0.2 °C 30.02in /  1016.5hPa South 2.0mph /  3.2km/h 4.0mph /  6.4km/h 95% 0.00in /  0mm
21:14 33.7 °F /  0.9 °C 32.4 °F /  0.2 °C 30.02in /  1016.5hPa South 1.0mph /  1.6km/h 3.0mph /  4.8km/h 95% 0.00in /  0mm
21:19 33.8 °F /  1 °C 32.5 °F /  0.3 °C 30.02in /  1016.5hPa South 1.0mph /  1.6km/h 3.0mph /  4.8km/h 95% 0.00in /  0mm
21:24 33.8 °F /  1 °C 32.5 °F /  0.3 °C 30.02in /  1016.5hPa South 1.0mph /  1.6km/h 3.0mph /  4.8km/h 95% 0.00in /  0mm
21:29 33.8 °F /  1 °C 32.5 °F /  0.3 °C 30.02in /  1016.5hPa Calm   2.0mph /  3.2km/h 95% 0.00in /  0mm
21:34 33.8 °F /  1 °C 32.5 °F /  0.3 °C 30.02in /  1016.5hPa Calm   2.0mph /  3.2km/h 95% 0.00in /  0mm
21:39 33.8 °F /  1 °C 32.5 °F /  0.3 °C 30.02in /  1016.5hPa Calm     95% 0.00in /  0mm
21:44 33.8 °F /  1 °C 32.5 °F /  0.3 °C 30.02in /  1016.5hPa Calm     95% 0.00in /  0mm
21:49 33.8 °F /  1 °C 32.5 °F /  0.3 °C 30.02in /  1016.5hPa Calm     95% 0.00in /  0mm
21:54 33.8 °F /  1 °C 32.5 °F /  0.3 °C 30.02in /  1016.5hPa Calm     95% 0.00in /  0mm
21:59 33.8 °F /  1 °C 32.5 °F /  0.3 °C 30.02in /  1016.5hPa Calm     95% 0.00in /  0mm
22:04 33.8 °F /  1 °C 32.5 °F /  0.3 °C 30.02in /  1016.5hPa Calm     95% 0.00in /  0mm
22:09 33.8 °F /  1 °C 32.5 °F /  0.3 °C 30.02in /  1016.5hPa Calm     95% 0.00in /  0mm
22:14 33.8 °F /  1 °C 32.5 °F /  0.3 °C 30.01in /  1016.1hPa Calm     95% 0.00in /  0mm
22:19 33.9 °F /  1.1 °C 32.6 °F /  0.3 °C 30.01in /  1016.1hPa Calm     95% 0.00in /  0mm
22:24 33.9 °F /  1.1 °C 32.6 °F /  0.3 °C 30.01in /  1016.1hPa Calm     95% 0.00in /  0mm
22:29 33.8 °F /  1 °C 32.5 °F /  0.3 °C 30.01in /  1016.1hPa Calm     95% 0.00in /  0mm
22:34 33.9 °F /  1.1 °C 32.6 °F /  0.3 °C 30.01in /  1016.1hPa Calm     95% 0.00in /  0mm
22:39 33.9 °F /  1.1 °C 32.6 °F /  0.3 °C 30.00in /  1015.8hPa Calm     95% 0.00in /  0mm
22:44 33.9 °F /  1.1 °C 32.6 °F /  0.3 °C 30.01in /  1016.1hPa Calm     95% 0.00in /  0mm
22:49 33.9 °F /  1.1 °C 32.6 °F /  0.3 °C 30.01in /  1016.1hPa Calm     95% 0.00in /  0mm
22:54 33.9 °F /  1.1 °C 32.6 °F /  0.3 °C 30.00in /  1015.8hPa Calm     95% 0.00in /  0mm
22:59 33.9 °F /  1.1 °C 32.6 °F /  0.3 °C 30.00in /  1015.8hPa Calm     95% 0.00in /  0mm
23:04 33.9 °F /  1.1 °C 32.6 °F /  0.3 °C 30.00in /  1015.8hPa Calm     95% 0.00in /  0mm
23:09 34.0 °F /  1.1 °C 32.7 °F /  0.4 °C 30.00in /  1015.8hPa Calm     95% 0.00in /  0mm
23:14 34.0 °F /  1.1 °C 32.7 °F /  0.4 °C 30.00in /  1015.8hPa Calm     95% 0.00in /  0mm
23:19 34.0 °F /  1.1 °C 32.7 °F /  0.4 °C 30.00in /  1015.8hPa Calm     95% 0.00in /  0mm
23:24 34.0 °F /  1.1 °C 32.7 °F /  0.4 °C 30.00in /  1015.8hPa Calm   2.0mph /  3.2km/h 95% 0.00in /  0mm
23:29 34.0 °F /  1.1 °C 32.7 °F /  0.4 °C 30.00in /  1015.8hPa Calm   2.0mph /  3.2km/h 95% 0.00in /  0mm
23:34 34.0 °F /  1.1 °C 32.7 °F /  0.4 °C 30.00in /  1015.8hPa Calm     95% 0.00in /  0mm
23:39 34.0 °F /  1.1 °C 32.7 °F /  0.4 °C 30.00in /  1015.8hPa Calm     95% 0.00in /  0mm
23:44 34.0 °F /  1.1 °C 32.7 °F /  0.4 °C 29.99in /  1015.5hPa Calm     95% 0.00in /  0mm
23:49 34.0 °F /  1.1 °C 32.7 °F /  0.4 °C 29.99in /  1015.5hPa Calm     95% 0.00in /  0mm
23:54 34.1 °F /  1.2 °C 32.8 °F /  0.4 °C 29.99in /  1015.5hPa Calm     95% 0.00in /  0mm
23:59 34.0 °F /  1.1 °C 32.7 °F /  0.4 °C 29.99in /  1015.5hPa Calm     95% 0.00in /  0mm
Buffalo, New York, USA
Compliments of Weather Underground - 2.5 mb